Time;durP1;ratioP1;P1;durP2;ratioP2;P2;SDS_P1;SDS_P2;PMS_P1;PMS_P2;Temp;Humidity;BMP_temperature;BMP_pressure;BME280_temperature;BME280_humidity;BME280_pressure;Samples;Min_cycle;Max_cycle;Signal;HPM_P1;HPM_P2
2021/10/14 00:03:36;;;;;;;17.60;11.10;;;;;;;2.54;82.35;99304.77;234689;1194;22452;-77
2021/10/14 00:08:39;;;;;;;15.90;10.40;;;;;;;2.46;82.65;99303.28;234847;1201;25022;-76
2021/10/14 00:13:44;;;;;;;13.00;9.00;;;;;;;2.47;82.99;99301.61;234819;1201;22453;-76
2021/10/14 00:18:49;;;;;;;16.20;9.60;;;;;;;2.51;83.25;99297.94;234779;1194;25255;-76
2021/10/14 00:23:52;;;;;;;17.50;10.80;;;;;;;2.54;83.36;99295.54;234755;1202;25192;-76
2021/10/14 00:28:58;;;;;;;19.60;11.80;;;;;;;2.62;83.48;99295.52;235271;1200;22558;-77
2021/10/14 00:34:08;;;;;;;19.50;12.10;;;;;;;2.72;83.67;99292.63;234947;1201;22932;-76
2021/10/14 00:39:10;;;;;;;15.80;9.40;;;;;;;2.78;83.69;99293.52;234909;1202;24066;-74
2021/10/14 00:44:13;;;;;;;13.90;9.00;;;;;;;2.81;83.68;99290.70;234684;1196;24423;-75
2021/10/14 00:49:17;;;;;;;17.90;11.50;;;;;;;2.80;83.53;99289.18;234786;1202;22647;-75
2021/10/14 00:54:20;;;;;;;17.70;11.00;;;;;;;2.79;83.66;99290.89;234811;1202;25218;-78
2021/10/14 00:59:23;;;;;;;17.20;10.80;;;;;;;2.79;83.72;99289.96;234765;1196;23276;-75
2021/10/14 01:04:26;;;;;;;15.20;10.20;;;;;;;2.77;83.63;99289.43;234721;1197;24192;-74
2021/10/14 01:09:29;;;;;;;17.60;9.60;;;;;;;2.78;83.88;99290.64;234836;1202;24113;-76
2021/10/14 01:14:31;;;;;;;17.90;11.00;;;;;;;2.77;83.91;99293.58;234856;1187;25195;-74
2021/10/14 01:19:42;;;;;;;17.10;11.10;;;;;;;2.74;83.73;99296.69;234958;1187;24111;-74
2021/10/14 01:24:47;;;;;;;14.40;9.30;;;;;;;2.75;83.71;99296.77;234789;1195;24027;-74
2021/10/14 01:29:50;;;;;;;15.60;9.40;;;;;;;2.65;83.47;99300.54;235219;1196;25148;-75
2021/10/14 01:34:53;;;;;;;15.50;10.00;;;;;;;2.55;83.61;99301.84;235184;1197;25227;-78
2021/10/14 01:39:56;;;;;;;17.90;10.80;;;;;;;2.49;83.76;99298.45;235223;1200;23139;-74
2021/10/14 01:45:00;;;;;;;16.70;10.70;;;;;;;2.49;84.04;99295.96;235149;1201;24067;-75
2021/10/14 01:50:04;;;;;;;14.10;9.60;;;;;;;2.52;84.08;99299.59;234822;1196;25016;-76
2021/10/14 01:55:07;;;;;;;13.90;9.10;;;;;;;2.54;84.25;99300.67;234882;1195;22418;-77
2021/10/14 02:00:11;;;;;;;16.20;11.20;;;;;;;2.48;83.98;99300.86;234787;1203;24110;-75
2021/10/14 02:05:14;;;;;;;18.80;11.60;;;;;;;2.44;83.91;99296.92;234990;1202;22558;-76
2021/10/14 02:10:17;;;;;;;16.20;10.70;;;;;;;2.42;83.94;99300.53;234818;1196;24099;-74
2021/10/14 02:15:20;;;;;;;15.30;9.50;;;;;;;2.38;83.79;99303.50;234666;1202;24596;-76
2021/10/14 02:20:23;;;;;;;22.30;11.30;;;;;;;2.33;83.88;99311.01;234851;1181;25294;-76
2021/10/14 02:25:26;;;;;;;16.90;11.50;;;;;;;2.31;84.14;99307.69;234812;1196;24075;-74
2021/10/14 02:30:28;;;;;;;17.10;10.80;;;;;;;2.34;84.28;99304.77;235364;1200;25207;-78
2021/10/14 02:35:31;;;;;;;13.60;8.90;;;;;;;2.35;84.06;99306.46;234718;1196;24024;-76
2021/10/14 02:40:34;;;;;;;14.50;9.70;;;;;;;2.33;84.02;99305.11;234837;1194;23000;-77
2021/10/14 02:45:36;;;;;;;12.60;8.30;;;;;;;2.29;83.86;99308.29;234890;1202;22434;-74
2021/10/14 02:50:39;;;;;;;15.90;8.20;;;;;;;2.19;83.95;99304.15;234848;1202;24531;-77
2021/10/14 02:55:42;;;;;;;12.90;8.60;;;;;;;2.11;83.84;99300.09;235037;1202;26095;-75
2021/10/14 03:00:44;;;;;;;11.30;8.00;;;;;;;2.04;83.80;99303.70;234705;1196;22441;-74
2021/10/14 03:05:47;;;;;;;13.10;8.70;;;;;;;2.01;83.75;99310.20;234704;1195;23993;-76
2021/10/14 03:10:49;;;;;;;13.60;8.30;;;;;;;1.93;83.88;99318.45;234592;1202;22441;-77
2021/10/14 03:15:53;;;;;;;12.40;8.40;;;;;;;1.84;83.84;99326.17;234660;1202;25300;-74
2021/10/14 03:20:58;;;;;;;13.30;9.60;;;;;;;1.75;83.82;99336.98;234735;1202;22459;-74
2021/10/14 03:26:04;;;;;;;13.50;9.40;;;;;;;1.66;83.98;99345.27;234626;1200;22507;-74
2021/10/14 03:31:11;;;;;;;15.80;9.90;;;;;;;1.62;84.01;99350.38;235314;1200;22567;-76
2021/10/14 03:36:37;;;;;;;15.40;9.30;;;;;;;1.64;84.25;99349.70;233150;1203;545103;-75
2021/10/14 03:41:40;;;;;;;16.60;9.60;;;;;;;1.59;84.18;99350.58;235275;1202;25702;-76
2021/10/14 03:46:44;;;;;;;20.00;11.60;;;;;;;1.59;84.18;99350.85;235230;1190;22454;-76
2021/10/14 03:51:47;;;;;;;19.90;11.60;;;;;;;1.55;84.24;99349.16;234471;1196;22448;-76
2021/10/14 03:56:49;;;;;;;17.30;10.20;;;;;;;1.50;83.98;99348.84;234415;1204;24033;-75
2021/10/14 04:01:52;;;;;;;15.30;9.80;;;;;;;1.43;84.03;99353.52;234418;1204;25247;-75
2021/10/14 04:06:55;;;;;;;12.30;8.10;;;;;;;1.41;84.19;99357.84;234518;1204;24044;-76
2021/10/14 04:11:58;;;;;;;13.80;9.20;;;;;;;1.44;84.43;99363.02;234446;1204;24239;-74
2021/10/14 04:17:09;;;;;;;31.90;15.40;;;;;;;1.47;84.55;99360.85;234185;1204;24089;-75
2021/10/14 04:22:20;;;;;;;38.40;17.50;;;;;;;1.45;84.29;99367.48;234470;1204;24056;-75
2021/10/14 04:27:24;;;;;;;28.80;14.70;;;;;;;1.48;84.50;99367.05;235857;1199;24101;-74
2021/10/14 04:32:27;;;;;;;17.50;11.90;;;;;;;1.60;84.91;99365.18;235612;1198;22432;-74
2021/10/14 04:37:30;;;;;;;19.20;10.90;;;;;;;1.77;85.49;99367.45;235964;1199;22442;-74
2021/10/14 04:42:32;;;;;;;19.30;12.10;;;;;;;1.89;85.35;99370.92;235961;1199;24062;-76
2021/10/14 04:47:36;;;;;;;21.20;13.20;;;;;;;1.97;85.16;99375.25;235720;1194;24145;-74
2021/10/14 04:52:39;;;;;;;20.50;12.40;;;;;;;2.03;85.00;99377.23;235832;1200;24113;-76
2021/10/14 04:57:42;;;;;;;25.50;14.20;;;;;;;2.12;85.23;99383.48;235526;1193;25252;-78
2021/10/14 05:02:45;;;;;;;20.90;12.30;;;;;;;2.18;85.20;99389.89;235367;1200;24139;-75
2021/10/14 05:07:49;;;;;;;29.90;16.60;;;;;;;2.04;84.18;99387.14;235525;1193;24056;-76
2021/10/14 05:12:51;;;;;;;30.00;17.80;;;;;;;1.88;83.95;99391.66;235362;1187;24196;-75
2021/10/14 05:17:54;;;;;;;39.20;19.30;;;;;;;1.82;84.40;99394.96;235369;1193;22451;-74
2021/10/14 05:22:57;;;;;;;38.40;20.00;;;;;;;1.80;84.26;99398.77;235362;1197;24020;-76
2021/10/14 05:28:00;;;;;;;32.20;17.80;;;;;;;1.74;84.38;99399.98;236147;1199;25014;-76
2021/10/14 05:33:02;;;;;;;38.70;19.30;;;;;;;1.71;84.40;99403.86;235870;1199;25014;-77
2021/10/14 05:38:10;;;;;;;38.50;21.00;;;;;;;1.69;84.43;99405.51;236035;1199;22428;-74
2021/10/14 05:43:13;;;;;;;37.20;20.10;;;;;;;1.69;84.13;99407.54;236431;1193;26145;-76
2021/10/14 05:48:29;;;;;;;36.70;20.50;;;;;;;1.70;84.38;99399.36;237940;1192;26377;-75
2021/10/14 05:53:37;;;;;;;44.10;23.70;;;;;;;1.77;84.38;99404.85;238242;1197;22440;-75
2021/10/14 05:58:40;;;;;;;46.30;24.10;;;;;;;1.89;84.59;99404.90;237143;1190;24084;-75
2021/10/14 06:03:43;;;;;;;37.60;21.50;;;;;;;2.14;84.85;99408.48;237000;1197;26134;-74
2021/10/14 06:08:45;;;;;;;32.10;20.60;;;;;;;2.37;84.60;99408.58;236725;1190;22850;-73
2021/10/14 06:14:01;;;;;;;34.70;21.30;;;;;;;2.60;84.78;99414.04;236580;1184;24031;-73
2021/10/14 06:19:23;;;;;;;37.00;21.30;;;;;;;2.87;84.81;99413.54;236420;1190;22419;-73
2021/10/14 06:24:26;;;;;;;33.50;20.40;;;;;;;3.20;85.12;99402.34;236390;1190;22436;-74
2021/10/14 06:29:29;;;;;;;35.10;22.70;;;;;;;3.49;84.71;99393.35;236509;1190;24612;-74
2021/10/14 06:34:31;;;;;;;34.50;20.00;;;;;;;3.74;84.61;99391.24;236980;1190;23063;-75
2021/10/14 06:39:34;;;;;;;33.50;19.80;;;;;;;4.02;84.84;99392.35;236995;1197;24023;-73
2021/10/14 06:44:37;;;;;;;28.50;17.80;;;;;;;4.17;84.04;99397.40;237426;1190;24126;-74
2021/10/14 06:49:39;;;;;;;30.90;19.20;;;;;;;4.28;83.66;99397.48;237276;1198;22563;-75
2021/10/14 06:54:44;;;;;;;31.60;20.00;;;;;;;4.50;84.00;99399.76;238534;1190;22386;-75
2021/10/14 07:00:00;;;;;;;32.40;20.90;;;;;;;4.66;83.73;99404.43;237112;1190;23267;-74
2021/10/14 07:05:13;;;;;;;35.80;22.10;;;;;;;4.70;83.30;99405.70;238263;1197;24069;-74
2021/10/14 07:10:25;;;;;;;34.40;20.90;;;;;;;4.80;83.09;99404.84;238674;1197;26161;-74
2021/10/14 07:15:39;;;;;;;39.80;23.40;;;;;;;4.82;82.75;99405.26;237526;1190;25112;-74
2021/10/14 07:20:42;;;;;;;36.10;22.00;;;;;;;4.90;83.21;99406.16;236868;1184;22443;-73
2021/10/14 07:25:45;;;;;;;39.50;22.80;;;;;;;4.96;83.26;99411.44;237150;1198;25145;-73
2021/10/14 07:30:48;;;;;;;37.20;23.50;;;;;;;5.00;83.27;99414.36;236861;1190;22576;-75
2021/10/14 07:35:50;;;;;;;36.20;22.40;;;;;;;5.06;83.23;99410.98;236889;1197;22546;-75
2021/10/14 07:40:53;;;;;;;30.10;19.40;;;;;;;5.35;83.72;99404.40;236946;1197;24123;-74
2021/10/14 07:45:55;;;;;;;33.10;20.70;;;;;;;5.79;84.24;99405.67;236888;1185;22633;-75
2021/10/14 07:50:58;;;;;;;26.70;17.90;;;;;;;6.31;84.57;99412.08;236800;1190;24156;-74
2021/10/14 07:56:01;;;;;;;25.00;16.80;;;;;;;6.86;83.85;99404.13;237602;1190;22466;-73
2021/10/14 08:01:11;;;;;;;15.40;10.00;;;;;;;7.43;83.79;99403.52;236511;1197;25215;-74
2021/10/14 08:06:30;;;;;;;13.00;8.50;;;;;;;7.91;81.60;99404.03;236881;1190;23277;-72
2021/10/14 08:11:33;;;;;;;15.40;9.50;;;;;;;8.26;80.78;99398.34;238587;1184;23713;-73
2021/10/14 08:16:38;;;;;;;17.50;10.70;;;;;;;8.41;79.48;99402.08;237947;1197;22451;-75
2021/10/14 08:21:41;;;;;;;20.20;11.20;;;;;;;8.33;78.83;99404.97;236915;1190;24015;-74
2021/10/14 08:26:47;;;;;;;18.10;11.50;;;;;;;8.46;79.14;99409.96;237555;1183;22426;-76
2021/10/14 08:32:05;;;;;;;20.00;10.40;;;;;;;8.44;77.71;99415.08;236927;1190;22442;-75
2021/10/14 08:37:08;;;;;;;13.10;8.80;;;;;;;8.40;78.07;99411.89;238744;1190;25181;-75
2021/10/14 08:42:10;;;;;;;19.30;10.80;;;;;;;8.37;76.73;99416.58;238755;1197;22429;-75
2021/10/14 08:47:15;;;;;;;15.60;9.60;;;;;;;8.22;77.00;99412.52;238598;1197;24058;-74
2021/10/14 08:52:18;;;;;;;12.40;8.00;;;;;;;8.28;77.07;99408.88;236886;1190;24008;-75
2021/10/14 08:57:21;;;;;;;13.80;8.90;;;;;;;8.42;76.34;99408.11;236582;1190;22425;-75
2021/10/14 09:02:24;;;;;;;14.40;8.60;;;;;;;8.60;76.14;99401.73;236992;1190;24145;-75
2021/10/14 09:07:30;;;;;;;14.40;8.20;;;;;;;8.91;76.62;99392.02;236589;1197;24007;-75
2021/10/14 09:12:36;;;;;;;14.10;7.90;;;;;;;9.26;74.83;99395.65;236291;1197;22440;-75
2021/10/14 09:17:57;;;;;;;10.00;7.00;;;;;;;9.40;74.07;99391.73;236460;1197;25699;-75
2021/10/14 09:23:21;;;;;;;10.70;6.20;;;;;;;9.50;73.70;99386.55;236398;1192;22441;-74
2021/10/14 09:28:26;;;;;;;13.30;6.30;;;;;;;9.76;74.19;99379.66;236649;1190;24075;-74
2021/10/14 09:33:28;;;;;;;9.20;6.20;;;;;;;10.07;73.40;99382.37;236584;1197;24161;-75
2021/10/14 09:38:32;;;;;;;9.30;6.30;;;;;;;10.19;72.47;99383.38;236522;1190;24034;-74
2021/10/14 09:43:35;;;;;;;8.20;5.30;;;;;;;10.27;71.74;99382.70;236457;1197;24004;-74
2021/10/14 09:48:48;;;;;;;8.40;5.60;;;;;;;10.37;71.43;99379.81;236494;1190;22440;-73
2021/10/14 09:54:04;;;;;;;7.50;5.00;;;;;;;10.49;70.59;99382.00;236565;1190;23501;-73
2021/10/14 09:59:08;;;;;;;9.60;5.70;;;;;;;10.79;71.35;99373.30;238298;1190;22562;-74
2021/10/14 10:04:11;;;;;;;8.80;5.70;;;;;;;11.20;70.58;99371.75;236237;1198;25064;-74
2021/10/14 10:09:29;;;;;;;7.90;5.00;;;;;;;11.35;68.91;99369.08;236466;1190;24016;-72
2021/10/14 10:14:51;;;;;;;6.90;4.60;;;;;;;11.26;66.69;99368.08;236699;1190;25204;-72
2021/10/14 10:20:07;;;;;;;8.00;5.10;;;;;;;11.20;66.18;99364.83;237487;1197;22888;-73
2021/10/14 10:25:18;;;;;;;7.80;4.40;;;;;;;11.24;66.71;99362.41;236548;1190;25273;-73
2021/10/14 10:30:29;;;;;;;6.10;4.10;;;;;;;11.26;65.80;99356.52;236398;1190;24041;-74
2021/10/14 10:35:47;;;;;;;5.70;3.70;;;;;;;11.35;65.29;99341.89;236602;1190;26348;-74
2021/10/14 10:40:53;;;;;;;7.30;5.30;;;;;;;11.50;65.11;99345.27;236515;1197;22721;-73
2021/10/14 10:46:06;;;;;;;6.90;3.70;;;;;;;11.64;65.30;99346.39;236272;1198;24045;-72
2021/10/14 10:51:29;;;;;;;6.60;4.00;;;;;;;11.66;63.25;99341.59;236280;1197;24097;-74
2021/10/14 10:56:38;;;;;;;7.90;5.00;;;;;;;11.58;63.34;99333.77;236148;1190;22438;-72
2021/10/14 11:01:40;;;;;;;8.30;5.70;;;;;;;11.62;63.92;99326.23;236317;1197;22438;-72
2021/10/14 11:06:52;;;;;;;7.30;3.80;;;;;;;11.58;62.14;99316.80;236861;1190;22466;-75
2021/10/14 11:12:04;;;;;;;5.40;3.80;;;;;;;11.73;63.12;99323.02;236478;1197;24068;-73
2021/10/14 11:17:13;;;;;;;6.50;3.90;;;;;;;11.81;61.89;99308.77;236509;1190;24100;-75
2021/10/14 11:22:18;;;;;;;7.90;4.20;;;;;;;11.76;62.10;99300.06;236301;1197;22434;-74
2021/10/14 11:27:20;;;;;;;7.80;5.00;;;;;;;11.69;59.72;99301.20;236552;1183;24123;-75
2021/10/14 11:32:32;;;;;;;6.00;3.90;;;;;;;11.77;60.27;99293.93;236857;1190;22979;-74
2021/10/14 11:37:35;;;;;;;4.10;3.30;;;;;;;11.88;57.07;99293.40;237036;1190;23861;-73
2021/10/14 11:42:38;;;;;;;6.20;2.90;;;;;;;11.87;57.96;99285.24;236766;1190;24044;-74
2021/10/14 11:47:41;;;;;;;4.20;2.50;;;;;;;11.96;58.47;99281.05;236448;1197;22431;-75
2021/10/14 11:53:00;;;;;;;4.20;2.90;;;;;;;12.01;57.18;99282.02;236617;1197;24037;-75
2021/10/14 11:58:03;;;;;;;3.90;2.50;;;;;;;11.98;55.85;99273.98;236290;1190;22421;-72
2021/10/14 12:03:06;;;;;;;3.40;2.30;;;;;;;12.09;55.63;99262.76;236252;1193;24027;-74
2021/10/14 12:08:09;;;;;;;3.90;2.70;;;;;;;12.20;54.59;99259.91;236655;1190;22419;-74
2021/10/14 12:13:15;;;;;;;3.70;1.90;;;;;;;12.32;53.36;99252.34;237048;1197;24012;-73
2021/10/14 12:18:29;;;;;;;4.50;2.20;;;;;;;12.39;51.28;99249.39;237432;1197;23650;-73
2021/10/14 12:23:40;;;;;;;5.10;3.10;;;;;;;12.45;50.92;99249.60;236416;1193;25119;-73
2021/10/14 12:28:44;;;;;;;3.70;2.40;;;;;;;12.43;50.30;99248.40;236487;1197;24043;-75
2021/10/14 12:33:56;;;;;;;2.70;2.00;;;;;;;12.33;49.35;99238.30;236511;1197;25607;-72
2021/10/14 12:38:58;;;;;;;3.10;2.20;;;;;;;12.23;50.04;99228.86;236380;1190;25058;-74
2021/10/14 12:44:06;;;;;;;3.00;2.00;;;;;;;12.21;49.98;99224.38;236364;1190;24026;-73
2021/10/14 12:54:31;;;;;;;5.50;3.80;;;;;;;12.06;50.96;99218.64;236600;1197;25193;-76
2021/10/14 12:59:38;;;;;;;4.10;2.40;;;;;;;12.08;51.35;99218.30;236648;1190;24074;-72
2021/10/14 13:04:40;;;;;;;4.20;2.70;;;;;;;12.01;51.46;99208.13;236695;1190;22564;-74
2021/10/14 13:09:43;;;;;;;6.30;4.30;;;;;;;11.94;52.22;99203.80;236886;1193;24088;-75
2021/10/14 13:14:46;;;;;;;4.30;2.80;;;;;;;11.87;52.92;99198.81;236802;1184;24085;-74
2021/10/14 13:19:48;;;;;;;4.60;2.10;;;;;;;11.82;53.38;99200.96;236615;1190;24086;-75
2021/10/14 13:24:51;;;;;;;4.80;2.90;;;;;;;11.75;54.14;99199.54;236320;1190;22558;-72
2021/10/14 13:29:53;;;;;;;5.40;3.80;;;;;;;11.70;55.03;99197.81;236573;1190;22438;-74
2021/10/14 13:34:56;;;;;;;8.20;4.60;;;;;;;11.69;55.96;99190.58;236467;1193;24044;-74
2021/10/14 13:40:00;;;;;;;50.70;33.00;;;;;;;11.65;56.37;99192.66;236589;1193;24080;-74
2021/10/14 13:45:16;;;;;;;16.40;11.00;;;;;;;11.57;56.93;99184.37;237478;1190;22446;-74
2021/10/14 13:50:44;;;;;;;5.20;3.40;;;;;;;11.58;56.81;99172.35;237261;1190;24702;-73
2021/10/14 13:55:47;;;;;;;5.80;4.30;;;;;;;11.59;57.37;99164.88;237259;1190;24613;-74
2021/10/14 14:00:50;;;;;;;7.40;4.90;;;;;;;11.66;57.72;99169.80;237820;1190;22903;-73
2021/10/14 14:05:57;;;;;;;5.00;3.50;;;;;;;11.62;56.92;99174.40;237535;1197;24591;-73
2021/10/14 14:11:00;;;;;;;5.40;3.50;;;;;;;11.51;57.16;99175.10;236856;1197;22436;-73
2021/10/14 14:16:04;;;;;;;5.10;3.60;;;;;;;11.46;57.49;99175.70;237084;1190;24037;-73
2021/10/14 14:21:07;;;;;;;4.90;4.00;;;;;;;11.41;57.48;99164.36;237003;1197;24112;-74
2021/10/14 14:26:10;;;;;;;5.00;3.80;;;;;;;11.34;57.85;99160.69;236884;1197;22437;-74
2021/10/14 14:31:14;;;;;;;5.20;3.80;;;;;;;11.19;58.40;99172.78;236470;1197;22479;-71
2021/10/14 14:36:18;;;;;;;30.90;21.90;;;;;;;11.12;58.96;99181.48;236553;1197;22517;-74
2021/10/14 14:41:21;;;;;;;3.60;2.70;;;;;;;11.09;58.03;99180.05;236393;1197;25182;-72
2021/10/14 14:46:26;;;;;;;2.70;1.90;;;;;;;10.95;57.74;99180.02;236488;1197;24003;-74
2021/10/14 14:51:30;;;;;;;2.50;1.70;;;;;;;10.84;57.97;99184.45;236813;1197;24018;-73
2021/10/14 14:56:32;;;;;;;2.00;1.80;;;;;;;10.69;57.15;99172.45;236427;1197;24528;-74
2021/10/14 15:01:40;;;;;;;5.30;2.70;;;;;;;10.50;57.65;99161.48;236483;1193;24043;-74
2021/10/14 15:06:44;;;;;;;4.60;2.30;;;;;;;10.35;58.33;99169.32;236466;1197;24577;-74
2021/10/14 15:11:47;;;;;;;4.30;2.80;;;;;;;10.23;58.96;99177.19;236765;1182;25231;-74
2021/10/14 15:16:50;;;;;;;4.20;2.80;;;;;;;10.17;59.87;99174.55;236139;1197;24068;-74
2021/10/14 15:21:53;;;;;;;4.80;2.90;;;;;;;10.11;60.22;99168.52;236342;1197;24186;-74
2021/10/14 15:26:56;;;;;;;4.30;2.80;;;;;;;10.04;60.73;99156.35;236169;1192;25262;-74
2021/10/14 15:31:58;;;;;;;4.70;3.20;;;;;;;9.91;61.18;99149.08;236501;1197;22659;-74
2021/10/14 15:37:02;;;;;;;5.60;3.40;;;;;;;9.77;61.67;99151.48;236332;1197;25325;-75
2021/10/14 15:42:08;;;;;;;5.30;3.50;;;;;;;9.62;62.11;99163.63;236303;1197;24093;-72
2021/10/14 15:47:11;;;;;;;8.40;4.70;;;;;;;9.51;62.57;99165.27;236156;1190;24038;-74
2021/10/14 15:52:15;;;;;;;8.80;5.30;;;;;;;9.40;63.14;99164.64;236510;1197;25237;-74
2021/10/14 15:57:18;;;;;;;11.10;6.00;;;;;;;9.28;63.53;99167.45;236478;1197;22490;-74
2021/10/14 16:02:22;;;;;;;10.30;6.70;;;;;;;9.15;63.89;99163.04;236543;1189;22714;-74
2021/10/14 16:07:25;;;;;;;11.50;7.00;;;;;;;9.07;64.24;99158.23;236539;1197;25007;-72
2021/10/14 16:12:28;;;;;;;10.50;7.00;;;;;;;9.00;64.57;99165.66;236320;1197;24080;-74
2021/10/14 16:17:31;;;;;;;12.60;7.80;;;;;;;8.94;65.06;99171.81;236391;1197;24051;-73
2021/10/14 16:22:33;;;;;;;15.40;9.40;;;;;;;8.91;65.34;99174.38;236321;1197;23033;-71
2021/10/14 16:27:42;;;;;;;14.70;9.30;;;;;;;8.88;65.87;99173.14;236244;1197;24015;-73
2021/10/14 16:37:57;;;;;;;22.10;14.00;;;;;;;8.84;66.38;99175.44;236149;1198;22427;-74
2021/10/14 16:43:00;;;;;;;17.40;10.10;;;;;;;8.83;66.54;99173.67;235956;1192;22779;-74
2021/10/14 16:48:03;;;;;;;15.80;9.90;;;;;;;8.80;66.83;99174.42;236380;1198;22523;-72
2021/10/14 16:53:08;;;;;;;19.00;11.30;;;;;;;8.77;67.11;99182.16;236780;1183;22438;-75
2021/10/14 16:58:13;;;;;;;15.80;10.10;;;;;;;8.72;67.56;99180.30;236418;1197;25202;-74
2021/10/14 17:03:16;;;;;;;19.30;11.50;;;;;;;8.66;67.88;99182.16;236458;1197;22456;-72
2021/10/14 17:08:20;;;;;;;17.20;10.50;;;;;;;8.63;68.31;99178.95;236216;1197;22448;-71
2021/10/14 17:13:24;;;;;;;17.70;11.10;;;;;;;8.59;68.49;99183.43;236287;1190;22447;-73
2021/10/14 17:18:31;;;;;;;19.90;12.30;;;;;;;8.56;68.68;99185.45;236336;1197;24069;-74
2021/10/14 17:35:06;;;;;;;18.70;11.60;;;;;;;8.55;69.27;99172.91;236280;1190;24081;-73
2021/10/14 17:40:12;;;;;;;18.50;11.30;;;;;;;8.58;69.33;99172.54;236299;1198;25295;-72
2021/10/14 17:45:20;;;;;;;16.40;10.30;;;;;;;8.58;69.35;99170.45;236511;1196;25084;-73
2021/10/14 17:50:29;;;;;;;16.80;10.40;;;;;;;8.57;69.39;99167.14;236388;1192;25249;-75
2021/10/14 17:55:31;;;;;;;16.50;10.20;;;;;;;8.53;69.38;99165.27;236442;1197;22459;-74
2021/10/14 18:00:34;;;;;;;18.50;11.70;;;;;;;8.47;69.46;99161.56;236274;1193;25182;-72
2021/10/14 18:05:55;;;;;;;16.10;9.90;;;;;;;8.37;69.73;99155.06;236437;1190;24015;-74
2021/10/14 18:43:05;;;;;;;15.80;10.00;;;;;;;7.91;70.99;99169.29;236155;1198;25269;-72
2021/10/14 18:48:08;;;;;;;16.50;9.60;;;;;;;7.85;71.21;99169.31;236321;1198;22456;-72
2021/10/14 18:53:11;;;;;;;19.20;12.10;;;;;;;7.81;71.62;99164.91;236253;1197;25142;-72
2021/10/14 18:58:16;;;;;;;19.80;10.60;;;;;;;7.79;71.82;99152.95;236408;1197;25192;-74
2021/10/14 19:03:23;;;;;;;16.20;9.40;;;;;;;7.74;71.88;99144.67;236352;1197;22509;-74
2021/10/14 19:13:43;;;;;;;14.40;9.50;;;;;;;7.75;72.56;99150.27;236290;1197;24017;-73
2021/10/14 20:23:15;;;;;;;20.60;10.70;;;;;;;7.99;73.98;99145.25;236113;1190;24101;-75
2021/10/14 20:28:19;;;;;;;16.10;9.80;;;;;;;8.04;73.97;99140.98;236198;1192;25032;-72
2021/10/14 20:33:26;;;;;;;17.90;10.60;;;;;;;8.09;73.97;99141.59;236262;1197;24107;-74
2021/10/14 20:38:32;;;;;;;15.20;9.00;;;;;;;8.13;73.76;99139.52;236232;1183;22466;-73
2021/10/14 20:43:34;;;;;;;13.20;8.40;;;;;;;8.15;73.91;99130.23;236058;1190;22456;-74
2021/10/14 20:48:40;;;;;;;15.00;8.70;;;;;;;8.18;73.88;99128.54;236059;1177;24114;-74
2021/10/14 20:53:50;;;;;;;15.00;8.50;;;;;;;8.19;74.05;99128.65;236534;1193;23141;-72
2021/10/14 21:04:18;;;;;;;13.00;7.90;;;;;;;8.21;74.23;99132.50;236003;1197;25717;-74
2021/10/14 21:09:20;;;;;;;14.80;8.20;;;;;;;8.25;74.29;99131.27;236124;1197;25125;-74
2021/10/14 21:14:24;;;;;;;12.50;7.40;;;;;;;8.27;74.57;99130.33;236261;1197;22693;-73
2021/10/14 21:19:27;;;;;;;10.20;7.40;;;;;;;8.29;74.63;99125.74;236415;1184;22494;-72
2021/10/14 21:24:30;;;;;;;14.00;7.40;;;;;;;8.31;74.66;99124.95;236203;1198;22442;-72
2021/10/14 21:29:40;;;;;;;12.10;7.30;;;;;;;8.30;74.95;99128.14;236180;1193;24093;-73
2021/10/14 21:40:05;;;;;;;11.70;6.90;;;;;;;8.26;75.31;99121.94;236196;1197;24010;-72
2021/10/14 21:45:08;;;;;;;11.80;7.60;;;;;;;8.25;75.58;99120.23;236220;1197;22416;-72
2021/10/14 21:50:11;;;;;;;11.60;7.60;;;;;;;8.22;75.75;99114.08;236195;1198;22451;-74
2021/10/14 21:55:14;;;;;;;12.70;7.70;;;;;;;8.20;75.77;99105.70;236063;1197;22440;-72
2021/10/14 22:00:21;;;;;;;16.20;8.60;;;;;;;8.17;75.97;99099.98;236217;1190;22509;-74
2021/10/14 22:05:25;;;;;;;13.80;8.40;;;;;;;8.13;76.26;99096.31;236176;1198;22422;-74
2021/10/14 22:10:31;;;;;;;9.30;6.90;;;;;;;8.11;76.22;99098.65;236216;1192;24081;-74
2021/10/14 22:15:43;;;;;;;10.80;7.20;;;;;;;8.11;76.36;99103.33;236065;1197;24218;-72
2021/10/14 22:20:46;;;;;;;12.80;7.20;;;;;;;8.13;76.71;99107.77;236070;1196;22437;-72
2021/10/14 22:25:59;;;;;;;11.10;6.90;;;;;;;8.14;76.66;99101.30;236137;1196;24576;-72
2021/10/14 22:31:08;;;;;;;12.30;6.90;;;;;;;8.18;76.88;99102.39;236132;1194;22499;-74
2021/10/14 22:36:10;;;;;;;11.80;6.80;;;;;;;8.19;76.92;99097.59;236310;1174;24088;-74
2021/10/14 22:41:12;;;;;;;8.00;6.40;;;;;;;8.21;76.85;99090.77;235913;1198;24019;-74
2021/10/14 22:46:26;;;;;;;9.70;6.80;;;;;;;8.25;77.01;99088.25;236189;1197;22545;-73
2021/10/14 22:51:36;;;;;;;11.20;6.60;;;;;;;8.25;77.04;99086.62;236278;1190;22461;-74
2021/10/14 22:56:39;;;;;;;8.50;5.80;;;;;;;8.27;76.99;99082.23;236175;1197;24088;-74
2021/10/14 23:01:42;;;;;;;8.50;6.10;;;;;;;8.31;77.03;99083.25;236118;1197;25319;-74
2021/10/14 23:06:46;;;;;;;7.90;5.60;;;;;;;8.32;77.07;99084.05;236015;1194;22412;-71
2021/10/14 23:11:48;;;;;;;8.80;5.50;;;;;;;8.35;77.17;99079.73;236201;1198;23679;-72
2021/10/14 23:16:53;;;;;;;10.60;7.00;;;;;;;8.35;77.35;99077.22;236099;1197;24653;-71
2021/10/14 23:21:55;;;;;;;9.00;5.80;;;;;;;8.34;77.28;99074.59;236013;1197;22443;-74
2021/10/14 23:27:05;;;;;;;8.00;5.60;;;;;;;8.34;77.31;99065.10;235858;1190;25282;-74
2021/10/14 23:32:15;;;;;;;7.90;5.80;;;;;;;8.33;77.39;99064.72;236021;1190;22464;-74
2021/10/14 23:37:18;;;;;;;8.90;5.80;;;;;;;8.34;77.40;99065.31;235976;1197;22448;-74
2021/10/14 23:42:21;;;;;;;8.20;6.10;;;;;;;8.32;77.50;99066.90;235900;1184;25495;-71
2021/10/14 23:47:24;;;;;;;8.20;6.00;;;;;;;8.33;77.57;99066.86;236012;1197;24071;-73
2021/10/14 23:52:26;;;;;;;7.50;5.70;;;;;;;8.33;77.65;99067.50;236308;1198;22558;-74
2021/10/14 23:57:29;;;;;;;9.00;5.80;;;;;;;8.33;77.57;99069.10;236230;1197;24053;-74
